sensor_id;sensor_type;location;lat;lon;timestamp;temperature;humidity
851;DHT22;412;51.400;7.480;2023-04-15T00:00:41;9.30;99.90
851;DHT22;412;51.400;7.480;2023-04-15T00:03:06;9.30;99.90
851;DHT22;412;51.400;7.480;2023-04-15T00:05:34;9.30;99.90
851;DHT22;412;51.400;7.480;2023-04-15T00:08:00;9.30;99.90
851;DHT22;412;51.400;7.480;2023-04-15T00:10:27;9.30;99.90
851;DHT22;412;51.400;7.480;2023-04-15T00:12:53;9.40;99.90
851;DHT22;412;51.400;7.480;2023-04-15T00:15:18;9.40;99.90
851;DHT22;412;51.400;7.480;2023-04-15T00:17:44;9.40;99.90
851;DHT22;412;51.400;7.480;2023-04-15T00:20:10;9.40;99.90
851;DHT22;412;51.400;7.480;2023-04-15T00:22:36;9.40;99.90
851;DHT22;412;51.400;7.480;2023-04-15T00:25:02;9.30;99.90
851;DHT22;412;51.400;7.480;2023-04-15T00:27:28;9.30;99.90
851;DHT22;412;51.400;7.480;2023-04-15T00:29:55;9.30;99.90
851;DHT22;412;51.400;7.480;2023-04-15T00:32:22;9.30;99.90
851;DHT22;412;51.400;7.480;2023-04-15T00:34:48;9.30;99.90
851;DHT22;412;51.400;7.480;2023-04-15T00:37:14;9.20;99.90
851;DHT22;412;51.400;7.480;2023-04-15T00:39:40;9.30;99.90
851;DHT22;412;51.400;7.480;2023-04-15T00:42:06;9.30;99.90
851;DHT22;412;51.400;7.480;2023-04-15T00:44:32;9.30;99.90
851;DHT22;412;51.400;7.480;2023-04-15T00:46:59;9.30;99.90
851;DHT22;412;51.400;7.480;2023-04-15T00:49:26;9.30;99.90
851;DHT22;412;51.400;7.480;2023-04-15T00:51:53;9.20;99.90
851;DHT22;412;51.400;7.480;2023-04-15T00:54:19;9.20;99.90
851;DHT22;412;51.400;7.480;2023-04-15T00:56:46;9.20;99.90
851;DHT22;412;51.400;7.480;2023-04-15T00:59:12;9.10;99.90
851;DHT22;412;51.400;7.480;2023-04-15T01:01:39;9.10;99.90
851;DHT22;412;51.400;7.480;2023-04-15T01:04:05;9.00;99.90
851;DHT22;412;51.400;7.480;2023-04-15T01:06:31;9.00;99.90
851;DHT22;412;51.400;7.480;2023-04-15T01:08:58;9.00;99.90
851;DHT22;412;51.400;7.480;2023-04-15T01:11:28;8.90;99.90
851;DHT22;412;51.400;7.480;2023-04-15T01:13:55;8.90;99.90
851;DHT22;412;51.400;7.480;2023-04-15T01:16:22;8.90;99.90
851;DHT22;412;51.400;7.480;2023-04-15T01:18:48;9.00;99.90
851;DHT22;412;51.400;7.480;2023-04-15T01:21:14;8.90;99.90
851;DHT22;412;51.400;7.480;2023-04-15T01:23:40;8.90;99.90
851;DHT22;412;51.400;7.480;2023-04-15T01:26:07;8.80;99.90
851;DHT22;412;51.400;7.480;2023-04-15T01:28:34;8.90;99.90
851;DHT22;412;51.400;7.480;2023-04-15T01:31:08;8.90;99.90
851;DHT22;412;51.400;7.480;2023-04-15T01:33:34;8.90;99.90
851;DHT22;412;51.400;7.480;2023-04-15T01:36:01;8.70;99.90
851;DHT22;412;51.400;7.480;2023-04-15T01:38:27;8.70;99.90
851;DHT22;412;51.400;7.480;2023-04-15T01:40:54;8.80;99.90
851;DHT22;412;51.400;7.480;2023-04-15T01:43:20;8.70;99.90
851;DHT22;412;51.400;7.480;2023-04-15T01:45:45;8.70;99.90
851;DHT22;412;51.400;7.480;2023-04-15T01:48:11;8.80;99.90
851;DHT22;412;51.400;7.480;2023-04-15T01:50:37;8.80;99.90
851;DHT22;412;51.400;7.480;2023-04-15T01:53:03;8.80;99.90
851;DHT22;412;51.400;7.480;2023-04-15T01:55:29;8.80;99.90
851;DHT22;412;51.400;7.480;2023-04-15T01:57:55;8.80;99.90
851;DHT22;412;51.400;7.480;2023-04-15T02:00:22;8.70;99.90
851;DHT22;412;51.400;7.480;2023-04-15T02:02:48;8.70;99.90
851;DHT22;412;51.400;7.480;2023-04-15T02:05:14;8.70;99.90
851;DHT22;412;51.400;7.480;2023-04-15T02:07:41;8.60;99.90
851;DHT22;412;51.400;7.480;2023-04-15T02:10:08;8.60;99.90
851;DHT22;412;51.400;7.480;2023-04-15T02:12:35;8.50;99.90
851;DHT22;412;51.400;7.480;2023-04-15T02:15:01;8.50;99.90
851;DHT22;412;51.400;7.480;2023-04-15T02:17:27;8.50;99.90
851;DHT22;412;51.400;7.480;2023-04-15T02:19:54;8.40;99.90
851;DHT22;412;51.400;7.480;2023-04-15T02:22:20;8.40;99.90
851;DHT22;412;51.400;7.480;2023-04-15T02:24:46;8.40;99.90
851;DHT22;412;51.400;7.480;2023-04-15T02:27:16;8.40;99.90
851;DHT22;412;51.400;7.480;2023-04-15T02:29:45;8.30;99.90
851;DHT22;412;51.400;7.480;2023-04-15T02:32:14;8.30;99.90
851;DHT22;412;51.400;7.480;2023-04-15T02:34:40;8.30;99.90
851;DHT22;412;51.400;7.480;2023-04-15T02:37:09;8.20;99.90
851;DHT22;412;51.400;7.480;2023-04-15T02:39:35;8.20;99.90
851;DHT22;412;51.400;7.480;2023-04-15T02:42:00;8.20;99.90
851;DHT22;412;51.400;7.480;2023-04-15T02:44:27;8.20;99.90
851;DHT22;412;51.400;7.480;2023-04-15T02:46:53;8.20;99.90
851;DHT22;412;51.400;7.480;2023-04-15T02:49:20;8.20;99.90
851;DHT22;412;51.400;7.480;2023-04-15T02:51:46;8.20;99.90
851;DHT22;412;51.400;7.480;2023-04-15T02:54:16;8.10;99.90
851;DHT22;412;51.400;7.480;2023-04-15T02:56:42;8.10;99.90
851;DHT22;412;51.400;7.480;2023-04-15T02:59:08;8.10;99.90
851;DHT22;412;51.400;7.480;2023-04-15T03:01:34;8.10;99.90
851;DHT22;412;51.400;7.480;2023-04-15T03:03:59;8.10;99.90
851;DHT22;412;51.400;7.480;2023-04-15T03:06:25;8.10;99.90
851;DHT22;412;51.400;7.480;2023-04-15T03:08:51;8.10;99.90
851;DHT22;412;51.400;7.480;2023-04-15T03:11:19;8.00;99.90
851;DHT22;412;51.400;7.480;2023-04-15T03:13:45;8.00;99.90
851;DHT22;412;51.400;7.480;2023-04-15T03:16:11;8.00;99.90
851;DHT22;412;51.400;7.480;2023-04-15T03:18:37;8.00;99.90
851;DHT22;412;51.400;7.480;2023-04-15T03:21:03;8.00;99.90
851;DHT22;412;51.400;7.480;2023-04-15T03:23:30;8.00;99.90
851;DHT22;412;51.400;7.480;2023-04-15T03:25:56;8.10;99.90
851;DHT22;412;51.400;7.480;2023-04-15T03:28:23;8.10;99.90
851;DHT22;412;51.400;7.480;2023-04-15T03:30:49;8.10;99.90
851;DHT22;412;51.400;7.480;2023-04-15T03:33:14;8.10;99.90
851;DHT22;412;51.400;7.480;2023-04-15T03:35:40;8.10;99.90
851;DHT22;412;51.400;7.480;2023-04-15T03:38:07;8.10;99.90
851;DHT22;412;51.400;7.480;2023-04-15T03:40:33;8.10;99.90
851;DHT22;412;51.400;7.480;2023-04-15T03:42:58;8.20;99.90
851;DHT22;412;51.400;7.480;2023-04-15T03:45:25;8.10;99.90
851;DHT22;412;51.400;7.480;2023-04-15T03:47:50;8.10;99.90
851;DHT22;412;51.400;7.480;2023-04-15T03:50:16;8.00;99.90
851;DHT22;412;51.400;7.480;2023-04-15T03:52:43;8.00;99.90
851;DHT22;412;51.400;7.480;2023-04-15T03:55:09;8.00;99.90
851;DHT22;412;51.400;7.480;2023-04-15T03:57:38;7.90;99.90
851;DHT22;412;51.400;7.480;2023-04-15T04:00:05;7.90;99.90
851;DHT22;412;51.400;7.480;2023-04-15T04:02:31;7.80;99.90
851;DHT22;412;51.400;7.480;2023-04-15T04:04:56;7.90;99.90
851;DHT22;412;51.400;7.480;2023-04-15T04:07:23;7.90;99.90
851;DHT22;412;51.400;7.480;2023-04-15T04:09:49;7.90;99.90
851;DHT22;412;51.400;7.480;2023-04-15T04:12:15;7.90;99.90
851;DHT22;412;51.400;7.480;2023-04-15T04:14:41;7.80;99.90
851;DHT22;412;51.400;7.480;2023-04-15T04:17:06;7.80;99.90
851;DHT22;412;51.400;7.480;2023-04-15T04:19:32;7.80;99.90
851;DHT22;412;51.400;7.480;2023-04-15T04:21:58;7.80;99.90
851;DHT22;412;51.400;7.480;2023-04-15T04:24:24;7.80;99.90
851;DHT22;412;51.400;7.480;2023-04-15T04:26:50;7.70;99.90
851;DHT22;412;51.400;7.480;2023-04-15T04:29:16;7.70;99.90
851;DHT22;412;51.400;7.480;2023-04-15T04:31:41;7.70;99.90
851;DHT22;412;51.400;7.480;2023-04-15T04:34:07;7.70;99.90
851;DHT22;412;51.400;7.480;2023-04-15T04:36:33;7.60;99.90
851;DHT22;412;51.400;7.480;2023-04-15T04:38:59;7.60;99.90
851;DHT22;412;51.400;7.480;2023-04-15T04:41:26;7.70;99.90
851;DHT22;412;51.400;7.480;2023-04-15T04:43:54;7.50;99.90
851;DHT22;412;51.400;7.480;2023-04-15T04:46:20;7.60;99.90
851;DHT22;412;51.400;7.480;2023-04-15T04:48:46;7.40;99.90
851;DHT22;412;51.400;7.480;2023-04-15T04:51:14;7.40;99.90
851;DHT22;412;51.400;7.480;2023-04-15T04:53:39;7.40;99.90
851;DHT22;412;51.400;7.480;2023-04-15T04:56:05;7.40;99.90
851;DHT22;412;51.400;7.480;2023-04-15T04:58:31;7.40;99.90
851;DHT22;412;51.400;7.480;2023-04-15T05:00:57;7.40;99.90
851;DHT22;412;51.400;7.480;2023-04-15T05:03:23;7.40;99.90
851;DHT22;412;51.400;7.480;2023-04-15T05:05:48;7.40;99.90
851;DHT22;412;51.400;7.480;2023-04-15T05:08:15;7.40;99.90
851;DHT22;412;51.400;7.480;2023-04-15T05:10:40;7.40;99.90
851;DHT22;412;51.400;7.480;2023-04-15T05:13:07;7.40;99.90
851;DHT22;412;51.400;7.480;2023-04-15T05:15:32;7.40;99.90
851;DHT22;412;51.400;7.480;2023-04-15T05:17:59;7.40;99.90
851;DHT22;412;51.400;7.480;2023-04-15T05:20:25;7.40;99.90
851;DHT22;412;51.400;7.480;2023-04-15T05:22:51;7.40;99.90
851;DHT22;412;51.400;7.480;2023-04-15T05:25:17;7.40;99.90
851;DHT22;412;51.400;7.480;2023-04-15T05:27:43;7.40;99.90
851;DHT22;412;51.400;7.480;2023-04-15T05:30:08;7.50;99.90
851;DHT22;412;51.400;7.480;2023-04-15T05:32:34;7.50;99.90
851;DHT22;412;51.400;7.480;2023-04-15T05:35:00;7.50;99.90
851;DHT22;412;51.400;7.480;2023-04-15T05:37:26;7.50;99.90
851;DHT22;412;51.400;7.480;2023-04-15T05:39:51;7.50;99.90
851;DHT22;412;51.400;7.480;2023-04-15T05:42:17;7.50;99.90
851;DHT22;412;51.400;7.480;2023-04-15T05:44:43;7.60;99.90
851;DHT22;412;51.400;7.480;2023-04-15T05:47:09;7.60;99.90
851;DHT22;412;51.400;7.480;2023-04-15T05:49:35;7.60;99.90
851;DHT22;412;51.400;7.480;2023-04-15T05:52:01;7.60;99.90
851;DHT22;412;51.400;7.480;2023-04-15T05:54:27;7.70;99.90
851;DHT22;412;51.400;7.480;2023-04-15T05:56:53;7.80;99.90
851;DHT22;412;51.400;7.480;2023-04-15T05:59:19;7.80;99.90
851;DHT22;412;51.400;7.480;2023-04-15T06:01:45;7.90;99.90
851;DHT22;412;51.400;7.480;2023-04-15T06:04:11;7.90;99.90
851;DHT22;412;51.400;7.480;2023-04-15T06:06:37;8.00;99.90
851;DHT22;412;51.400;7.480;2023-04-15T06:09:03;8.00;99.90
851;DHT22;412;51.400;7.480;2023-04-15T06:11:29;8.10;99.90
851;DHT22;412;51.400;7.480;2023-04-15T06:13:55;8.10;99.90
851;DHT22;412;51.400;7.480;2023-04-15T06:16:21;8.10;99.90
851;DHT22;412;51.400;7.480;2023-04-15T06:18:47;8.20;99.90
851;DHT22;412;51.400;7.480;2023-04-15T06:21:14;8.20;99.90
851;DHT22;412;51.400;7.480;2023-04-15T06:23:40;8.30;99.90
851;DHT22;412;51.400;7.480;2023-04-15T06:26:06;8.30;99.90
851;DHT22;412;51.400;7.480;2023-04-15T06:28:32;8.40;99.90
851;DHT22;412;51.400;7.480;2023-04-15T06:30:58;8.40;99.90
851;DHT22;412;51.400;7.480;2023-04-15T06:33:23;8.50;99.90
851;DHT22;412;51.400;7.480;2023-04-15T06:35:50;8.60;99.90
851;DHT22;412;51.400;7.480;2023-04-15T06:38:15;8.60;99.90
851;DHT22;412;51.400;7.480;2023-04-15T06:40:41;8.60;99.90
851;DHT22;412;51.400;7.480;2023-04-15T06:43:07;8.70;99.90
851;DHT22;412;51.400;7.480;2023-04-15T06:45:33;8.70;99.90
851;DHT22;412;51.400;7.480;2023-04-15T06:47:59;8.70;99.90
851;DHT22;412;51.400;7.480;2023-04-15T06:50:25;8.80;99.90
851;DHT22;412;51.400;7.480;2023-04-15T06:52:53;8.80;99.90
851;DHT22;412;51.400;7.480;2023-04-15T06:55:18;8.80;99.90
851;DHT22;412;51.400;7.480;2023-04-15T06:57:44;8.90;99.90
851;DHT22;412;51.400;7.480;2023-04-15T07:00:10;8.90;99.90
851;DHT22;412;51.400;7.480;2023-04-15T07:02:36;8.90;99.90
851;DHT22;412;51.400;7.480;2023-04-15T07:05:05;9.00;99.90
851;DHT22;412;51.400;7.480;2023-04-15T07:07:31;9.00;99.90
851;DHT22;412;51.400;7.480;2023-04-15T07:09:57;9.10;99.90
851;DHT22;412;51.400;7.480;2023-04-15T07:12:22;9.30;99.90
851;DHT22;412;51.400;7.480;2023-04-15T07:14:48;9.20;99.90
851;DHT22;412;51.400;7.480;2023-04-15T07:17:14;9.30;99.90
851;DHT22;412;51.400;7.480;2023-04-15T07:19:40;9.30;99.90
851;DHT22;412;51.400;7.480;2023-04-15T07:22:06;9.30;99.90
851;DHT22;412;51.400;7.480;2023-04-15T07:24:32;9.40;99.90
851;DHT22;412;51.400;7.480;2023-04-15T07:26:58;9.40;99.90
851;DHT22;412;51.400;7.480;2023-04-15T07:29:24;9.50;99.90
851;DHT22;412;51.400;7.480;2023-04-15T07:31:50;9.60;99.90
851;DHT22;412;51.400;7.480;2023-04-15T07:34:19;9.60;99.90
851;DHT22;412;51.400;7.480;2023-04-15T07:36:45;9.60;99.90
851;DHT22;412;51.400;7.480;2023-04-15T07:39:15;9.80;99.90
851;DHT22;412;51.400;7.480;2023-04-15T07:41:41;9.80;99.90
851;DHT22;412;51.400;7.480;2023-04-15T07:44:07;9.80;99.90
851;DHT22;412;51.400;7.480;2023-04-15T07:46:32;9.90;99.90
851;DHT22;412;51.400;7.480;2023-04-15T07:48:58;10.00;99.90
851;DHT22;412;51.400;7.480;2023-04-15T07:51:24;10.10;99.90
851;DHT22;412;51.400;7.480;2023-04-15T07:53:50;10.20;99.90
851;DHT22;412;51.400;7.480;2023-04-15T07:56:16;10.30;99.90
851;DHT22;412;51.400;7.480;2023-04-15T07:58:42;10.40;99.90
851;DHT22;412;51.400;7.480;2023-04-15T08:01:08;10.50;99.90
851;DHT22;412;51.400;7.480;2023-04-15T08:03:33;10.50;99.90
851;DHT22;412;51.400;7.480;2023-04-15T08:05:59;10.70;99.90
851;DHT22;412;51.400;7.480;2023-04-15T08:08:25;11.10;99.90
851;DHT22;412;51.400;7.480;2023-04-15T08:10:51;11.60;99.90
851;DHT22;412;51.400;7.480;2023-04-15T08:13:17;12.10;99.90
851;DHT22;412;51.400;7.480;2023-04-15T08:15:43;12.60;99.90
851;DHT22;412;51.400;7.480;2023-04-15T08:18:10;12.90;99.90
851;DHT22;412;51.400;7.480;2023-04-15T08:20:36;13.30;99.90
851;DHT22;412;51.400;7.480;2023-04-15T08:23:02;13.60;99.90
851;DHT22;412;51.400;7.480;2023-04-15T08:25:29;14.00;99.90
851;DHT22;412;51.400;7.480;2023-04-15T08:27:58;14.10;99.90
851;DHT22;412;51.400;7.480;2023-04-15T08:30:23;14.30;99.90
851;DHT22;412;51.400;7.480;2023-04-15T08:32:49;14.60;99.90
851;DHT22;412;51.400;7.480;2023-04-15T08:35:15;14.80;99.90
851;DHT22;412;51.400;7.480;2023-04-15T08:37:41;15.00;99.70
851;DHT22;412;51.400;7.480;2023-04-15T08:40:07;15.20;99.30
851;DHT22;412;51.400;7.480;2023-04-15T08:42:42;15.50;99.90
851;DHT22;412;51.400;7.480;2023-04-15T08:45:09;15.60;98.40
851;DHT22;412;51.400;7.480;2023-04-15T08:47:38;15.80;99.90
851;DHT22;412;51.400;7.480;2023-04-15T08:50:08;15.80;95.60
851;DHT22;412;51.400;7.480;2023-04-15T08:52:34;15.80;99.30
851;DHT22;412;51.400;7.480;2023-04-15T08:55:01;15.80;96.60
851;DHT22;412;51.400;7.480;2023-04-15T08:57:28;15.80;97.90
851;DHT22;412;51.400;7.480;2023-04-15T08:59:57;15.80;99.30
851;DHT22;412;51.400;7.480;2023-04-15T09:02:24;15.90;97.40
851;DHT22;412;51.400;7.480;2023-04-15T09:04:53;16.00;96.30
851;DHT22;412;51.400;7.480;2023-04-15T09:07:18;16.00;97.20
851;DHT22;412;51.400;7.480;2023-04-15T09:09:44;16.00;96.90
851;DHT22;412;51.400;7.480;2023-04-15T09:12:10;15.80;94.10
851;DHT22;412;51.400;7.480;2023-04-15T09:14:38;15.70;94.50
851;DHT22;412;51.400;7.480;2023-04-15T09:17:05;15.50;96.70
851;DHT22;412;51.400;7.480;2023-04-15T09:19:34;15.40;96.10
851;DHT22;412;51.400;7.480;2023-04-15T09:22:01;15.30;95.20
851;DHT22;412;51.400;7.480;2023-04-15T09:24:38;15.30;96.40
851;DHT22;412;51.400;7.480;2023-04-15T09:27:04;15.40;99.90
851;DHT22;412;51.400;7.480;2023-04-15T09:29:30;15.30;95.90
851;DHT22;412;51.400;7.480;2023-04-15T09:31:56;15.40;99.90
851;DHT22;412;51.400;7.480;2023-04-15T09:34:34;15.50;99.90
851;DHT22;412;51.400;7.480;2023-04-15T09:37:01;15.60;99.90
851;DHT22;412;51.400;7.480;2023-04-15T09:39:27;15.70;99.90
851;DHT22;412;51.400;7.480;2023-04-15T09:42:06;16.00;99.90
851;DHT22;412;51.400;7.480;2023-04-15T09:44:32;16.20;99.90
851;DHT22;412;51.400;7.480;2023-04-15T09:46:58;16.20;98.40
851;DHT22;412;51.400;7.480;2023-04-15T09:49:24;16.40;96.80
851;DHT22;412;51.400;7.480;2023-04-15T09:51:49;16.40;97.90
851;DHT22;412;51.400;7.480;2023-04-15T09:54:20;16.50;96.60
851;DHT22;412;51.400;7.480;2023-04-15T09:56:46;16.60;94.90
851;DHT22;412;51.400;7.480;2023-04-15T09:59:14;16.50;92.60
851;DHT22;412;51.400;7.480;2023-04-15T10:01:41;16.30;92.80
851;DHT22;412;51.400;7.480;2023-04-15T10:04:08;16.00;92.90
851;DHT22;412;51.400;7.480;2023-04-15T10:06:34;15.70;93.70
851;DHT22;412;51.400;7.480;2023-04-15T10:09:01;15.30;94.70
851;DHT22;412;51.400;7.480;2023-04-15T10:11:29;15.00;95.90
851;DHT22;412;51.400;7.480;2023-04-15T10:13:56;14.80;96.80
851;DHT22;412;51.400;7.480;2023-04-15T10:16:26;14.50;97.40
851;DHT22;412;51.400;7.480;2023-04-15T10:18:56;13.90;99.10
851;DHT22;412;51.400;7.480;2023-04-15T10:21:27;13.40;99.90
851;DHT22;412;51.400;7.480;2023-04-15T10:23:53;13.10;99.90
851;DHT22;412;51.400;7.480;2023-04-15T10:26:19;13.00;99.90
851;DHT22;412;51.400;7.480;2023-04-15T10:28:45;13.00;99.90
851;DHT22;412;51.400;7.480;2023-04-15T10:31:15;12.80;99.90
851;DHT22;412;51.400;7.480;2023-04-15T10:33:45;12.70;99.90
851;DHT22;412;51.400;7.480;2023-04-15T10:36:13;12.60;99.90
851;DHT22;412;51.400;7.480;2023-04-15T10:38:40;12.60;99.90
851;DHT22;412;51.400;7.480;2023-04-15T10:44:01;12.70;99.90
851;DHT22;412;51.400;7.480;2023-04-15T10:46:43;12.70;99.90
851;DHT22;412;51.400;7.480;2023-04-15T10:49:24;12.60;99.90
851;DHT22;412;51.400;7.480;2023-04-15T10:51:52;12.60;99.90
851;DHT22;412;51.400;7.480;2023-04-15T10:56:51;12.60;99.90
851;DHT22;412;51.400;7.480;2023-04-15T10:59:32;12.60;99.90
851;DHT22;412;51.400;7.480;2023-04-15T11:02:05;12.40;99.90
851;DHT22;412;51.400;7.480;2023-04-15T11:04:57;12.30;99.90
851;DHT22;412;51.400;7.480;2023-04-15T11:13:19;12.40;99.90
851;DHT22;412;51.400;7.480;2023-04-15T11:15:45;12.40;99.90
851;DHT22;412;51.400;7.480;2023-04-15T11:21:02;12.30;99.90
851;DHT22;412;51.400;7.480;2023-04-15T11:23:43;12.30;99.90
851;DHT22;412;51.400;7.480;2023-04-15T11:26:12;12.30;99.90
851;DHT22;412;51.400;7.480;2023-04-15T11:28:42;12.30;99.90
851;DHT22;412;51.400;7.480;2023-04-15T11:31:13;12.30;99.90
851;DHT22;412;51.400;7.480;2023-04-15T11:33:58;12.40;99.90
851;DHT22;412;51.400;7.480;2023-04-15T11:36:26;12.40;99.90
851;DHT22;412;51.400;7.480;2023-04-15T11:38:52;12.40;99.90
851;DHT22;412;51.400;7.480;2023-04-15T11:41:22;12.50;99.90
851;DHT22;412;51.400;7.480;2023-04-15T11:43:49;12.40;99.90
851;DHT22;412;51.400;7.480;2023-04-15T11:46:17;12.40;99.90
851;DHT22;412;51.400;7.480;2023-04-15T11:48:48;12.40;99.90
851;DHT22;412;51.400;7.480;2023-04-15T11:51:13;12.40;99.90
851;DHT22;412;51.400;7.480;2023-04-15T11:53:48;12.40;99.90
851;DHT22;412;51.400;7.480;2023-04-15T11:56:23;12.40;99.90
851;DHT22;412;51.400;7.480;2023-04-15T11:58:53;12.40;99.90
851;DHT22;412;51.400;7.480;2023-04-15T12:01:34;12.40;99.90
851;DHT22;412;51.400;7.480;2023-04-15T12:04:01;12.50;99.90
851;DHT22;412;51.400;7.480;2023-04-15T12:06:37;12.50;99.90
851;DHT22;412;51.400;7.480;2023-04-15T12:09:11;12.40;99.90
851;DHT22;412;51.400;7.480;2023-04-15T12:14:26;12.40;99.90
851;DHT22;412;51.400;7.480;2023-04-15T12:17:12;12.40;99.90
851;DHT22;412;51.400;7.480;2023-04-15T12:19:40;12.40;99.90
851;DHT22;412;51.400;7.480;2023-04-15T12:22:25;12.40;99.90
851;DHT22;412;51.400;7.480;2023-04-15T12:24:55;12.40;99.90
851;DHT22;412;51.400;7.480;2023-04-15T12:27:25;12.40;99.90
851;DHT22;412;51.400;7.480;2023-04-15T12:30:03;12.40;99.90
851;DHT22;412;51.400;7.480;2023-04-15T12:32:34;12.30;99.90
851;DHT22;412;51.400;7.480;2023-04-15T12:35:00;12.30;99.90
851;DHT22;412;51.400;7.480;2023-04-15T12:37:27;12.40;99.90
851;DHT22;412;51.400;7.480;2023-04-15T12:39:53;12.40;99.90
851;DHT22;412;51.400;7.480;2023-04-15T12:42:19;12.40;99.90
851;DHT22;412;51.400;7.480;2023-04-15T12:44:46;12.40;99.90
851;DHT22;412;51.400;7.480;2023-04-15T12:47:20;12.40;99.90
851;DHT22;412;51.400;7.480;2023-04-15T12:49:45;12.40;99.90
851;DHT22;412;51.400;7.480;2023-04-15T12:52:13;12.40;99.90
851;DHT22;412;51.400;7.480;2023-04-15T12:54:42;12.30;99.90
851;DHT22;412;51.400;7.480;2023-04-15T12:57:08;12.40;99.90
851;DHT22;412;51.400;7.480;2023-04-15T12:59:34;12.40;99.90
851;DHT22;412;51.400;7.480;2023-04-15T13:02:00;12.40;99.90
851;DHT22;412;51.400;7.480;2023-04-15T13:04:29;12.20;99.90
851;DHT22;412;51.400;7.480;2023-04-15T13:06:58;12.40;99.90
851;DHT22;412;51.400;7.480;2023-04-15T13:09:24;12.50;99.90
851;DHT22;412;51.400;7.480;2023-04-15T13:11:50;12.40;99.90
851;DHT22;412;51.400;7.480;2023-04-15T13:14:16;12.60;99.90
851;DHT22;412;51.400;7.480;2023-04-15T13:19:08;12.50;99.90
851;DHT22;412;51.400;7.480;2023-04-15T13:24:00;12.40;99.90
851;DHT22;412;51.400;7.480;2023-04-15T13:26:26;12.50;99.90
851;DHT22;412;51.400;7.480;2023-04-15T13:28:52;12.50;99.90
851;DHT22;412;51.400;7.480;2023-04-15T13:31:18;12.50;99.90
851;DHT22;412;51.400;7.480;2023-04-15T13:33:44;12.50;99.90
851;DHT22;412;51.400;7.480;2023-04-15T13:36:10;12.40;99.90
851;DHT22;412;51.400;7.480;2023-04-15T13:38:35;12.30;99.90
851;DHT22;412;51.400;7.480;2023-04-15T13:41:01;12.30;99.90
851;DHT22;412;51.400;7.480;2023-04-15T13:43:28;12.30;99.90
851;DHT22;412;51.400;7.480;2023-04-15T13:45:54;12.30;99.90
851;DHT22;412;51.400;7.480;2023-04-15T13:48:20;12.30;99.90
851;DHT22;412;51.400;7.480;2023-04-15T13:50:46;12.30;99.90
851;DHT22;412;51.400;7.480;2023-04-15T13:53:12;12.30;99.90
851;DHT22;412;51.400;7.480;2023-04-15T13:55:39;12.30;99.90
851;DHT22;412;51.400;7.480;2023-04-15T13:58:08;12.30;99.90
851;DHT22;412;51.400;7.480;2023-04-15T14:00:34;12.30;99.90
851;DHT22;412;51.400;7.480;2023-04-15T14:03:00;12.30;99.90
851;DHT22;412;51.400;7.480;2023-04-15T14:05:26;12.30;99.90
851;DHT22;412;51.400;7.480;2023-04-15T14:07:52;12.30;99.90
851;DHT22;412;51.400;7.480;2023-04-15T14:10:18;12.30;99.90
851;DHT22;412;51.400;7.480;2023-04-15T14:12:43;12.30;99.90
851;DHT22;412;51.400;7.480;2023-04-15T14:15:09;12.30;99.90
851;DHT22;412;51.400;7.480;2023-04-15T14:17:35;12.30;99.90
851;DHT22;412;51.400;7.480;2023-04-15T14:20:01;12.30;99.90
851;DHT22;412;51.400;7.480;2023-04-15T14:22:27;12.30;99.90
851;DHT22;412;51.400;7.480;2023-04-15T14:24:53;12.30;99.90
851;DHT22;412;51.400;7.480;2023-04-15T14:27:20;12.30;99.90
851;DHT22;412;51.400;7.480;2023-04-15T14:29:46;12.30;99.90
851;DHT22;412;51.400;7.480;2023-04-15T14:32:12;12.30;99.90
851;DHT22;412;51.400;7.480;2023-04-15T14:34:38;12.30;99.90
851;DHT22;412;51.400;7.480;2023-04-15T14:37:03;12.30;99.90
851;DHT22;412;51.400;7.480;2023-04-15T14:39:29;12.30;99.90
851;DHT22;412;51.400;7.480;2023-04-15T14:41:55;12.30;99.90
851;DHT22;412;51.400;7.480;2023-04-15T14:44:21;12.30;99.90
851;DHT22;412;51.400;7.480;2023-04-15T14:46:47;12.30;99.90
851;DHT22;412;51.400;7.480;2023-04-15T14:49:13;12.30;99.90
851;DHT22;412;51.400;7.480;2023-04-15T14:51:39;12.20;99.90
851;DHT22;412;51.400;7.480;2023-04-15T14:54:05;12.20;99.90
851;DHT22;412;51.400;7.480;2023-04-15T14:56:31;12.10;99.90
851;DHT22;412;51.400;7.480;2023-04-15T14:58:57;12.20;99.90
851;DHT22;412;51.400;7.480;2023-04-15T15:01:23;12.10;99.90
851;DHT22;412;51.400;7.480;2023-04-15T15:03:49;12.20;99.90
851;DHT22;412;51.400;7.480;2023-04-15T15:06:15;12.20;99.90
851;DHT22;412;51.400;7.480;2023-04-15T15:08:41;12.10;99.90
851;DHT22;412;51.400;7.480;2023-04-15T15:11:07;12.20;99.90
851;DHT22;412;51.400;7.480;2023-04-15T15:13:33;12.20;99.90
851;DHT22;412;51.400;7.480;2023-04-15T15:15:59;12.20;99.90
851;DHT22;412;51.400;7.480;2023-04-15T15:18:25;12.20;99.90
851;DHT22;412;51.400;7.480;2023-04-15T15:20:51;12.20;99.90
851;DHT22;412;51.400;7.480;2023-04-15T15:23:17;12.20;99.90
851;DHT22;412;51.400;7.480;2023-04-15T15:25:44;12.10;99.90
851;DHT22;412;51.400;7.480;2023-04-15T15:28:11;12.10;99.90
851;DHT22;412;51.400;7.480;2023-04-15T15:30:37;12.10;99.90
851;DHT22;412;51.400;7.480;2023-04-15T15:33:03;12.00;99.90
851;DHT22;412;51.400;7.480;2023-04-15T15:35:29;12.00;99.90
851;DHT22;412;51.400;7.480;2023-04-15T15:37:54;12.00;99.90
851;DHT22;412;51.400;7.480;2023-04-15T15:40:20;12.00;99.90
851;DHT22;412;51.400;7.480;2023-04-15T15:42:46;12.00;99.90
851;DHT22;412;51.400;7.480;2023-04-15T15:45:14;12.00;99.90
851;DHT22;412;51.400;7.480;2023-04-15T15:47:40;12.00;99.90
851;DHT22;412;51.400;7.480;2023-04-15T15:50:06;12.00;99.90
851;DHT22;412;51.400;7.480;2023-04-15T15:52:32;11.90;99.90
851;DHT22;412;51.400;7.480;2023-04-15T15:54:58;12.00;99.90
851;DHT22;412;51.400;7.480;2023-04-15T15:57:24;12.00;99.90
851;DHT22;412;51.400;7.480;2023-04-15T15:59:50;11.90;99.90
851;DHT22;412;51.400;7.480;2023-04-15T16:02:16;11.90;99.90
851;DHT22;412;51.400;7.480;2023-04-15T16:04:42;11.90;99.90
851;DHT22;412;51.400;7.480;2023-04-15T16:07:09;11.90;99.90
851;DHT22;412;51.400;7.480;2023-04-15T16:09:36;11.90;99.90
851;DHT22;412;51.400;7.480;2023-04-15T16:12:02;11.90;99.90
851;DHT22;412;51.400;7.480;2023-04-15T16:14:29;11.90;99.90
851;DHT22;412;51.400;7.480;2023-04-15T16:16:54;11.80;99.90
851;DHT22;412;51.400;7.480;2023-04-15T16:19:20;11.80;99.90
851;DHT22;412;51.400;7.480;2023-04-15T16:21:47;11.80;99.90
851;DHT22;412;51.400;7.480;2023-04-15T16:24:12;11.80;99.90
851;DHT22;412;51.400;7.480;2023-04-15T16:26:40;11.80;99.90
851;DHT22;412;51.400;7.480;2023-04-15T16:29:06;11.70;99.90
851;DHT22;412;51.400;7.480;2023-04-15T16:31:32;11.70;99.90
851;DHT22;412;51.400;7.480;2023-04-15T16:33:58;11.70;99.90
851;DHT22;412;51.400;7.480;2023-04-15T16:36:24;11.70;99.90
851;DHT22;412;51.400;7.480;2023-04-15T16:38:51;13.10;99.90
851;DHT22;412;51.400;7.480;2023-04-15T16:41:19;14.40;99.90
851;DHT22;412;51.400;7.480;2023-04-15T16:43:45;15.50;99.90
851;DHT22;412;51.400;7.480;2023-04-15T16:46:11;16.00;99.90
851;DHT22;412;51.400;7.480;2023-04-15T16:48:36;16.00;99.90
851;DHT22;412;51.400;7.480;2023-04-15T16:51:02;16.10;99.90
851;DHT22;412;51.400;7.480;2023-04-15T16:53:28;16.20;99.90
851;DHT22;412;51.400;7.480;2023-04-15T16:55:54;16.10;99.90
851;DHT22;412;51.400;7.480;2023-04-15T16:58:20;16.20;99.90
851;DHT22;412;51.400;7.480;2023-04-15T17:00:45;16.30;99.90